createdAt,value
2023-02-23T00:00:53.554Z,89.66
2023-02-23T00:02:59.048Z,89.39
2023-02-23T00:05:02.432Z,89.33
2023-02-23T00:07:08.010Z,89.65
2023-02-23T00:09:22.734Z,90.35
2023-02-23T00:11:27.111Z,89.99
2023-02-23T00:13:30.323Z,89.84
2023-02-23T00:15:33.943Z,89.73
2023-02-23T00:17:37.731Z,89.70
2023-02-23T00:19:43.433Z,89.85
2023-02-23T00:21:47.217Z,90.17
2023-02-23T00:23:53.289Z,89.83
2023-02-23T00:25:59.455Z,90.40
2023-02-23T00:28:02.557Z,90.70
2023-02-23T00:30:08.353Z,89.98
2023-02-23T00:32:11.637Z,90.54
2023-02-23T00:34:16.256Z,90.31
2023-02-23T00:36:19.427Z,90.26
2023-02-23T00:38:22.953Z,90.53
2023-02-23T00:40:27.509Z,90.60
2023-02-23T00:42:32.350Z,90.64
2023-02-23T00:44:40.588Z,90.71
2023-02-23T00:46:44.742Z,90.08
2023-02-23T00:48:49.139Z,91.43
2023-02-23T00:50:59.615Z,91.20
2023-02-23T00:53:02.744Z,91.04
2023-02-23T00:55:07.404Z,91.16
2023-02-23T00:57:12.168Z,91.09
2023-02-23T00:59:16.003Z,91.13
2023-02-23T01:01:20.126Z,90.89
2023-02-23T01:03:23.548Z,91.11
2023-02-23T01:05:26.624Z,91.13
2023-02-23T01:07:30.254Z,91.05
2023-02-23T01:09:34.091Z,90.94
2023-02-23T01:11:37.180Z,91.02
2023-02-23T01:13:43.522Z,90.24
2023-02-23T01:15:48.040Z,90.88
2023-02-23T01:17:51.421Z,90.59
2023-02-23T01:19:55.299Z,91.17
2023-02-23T01:21:58.417Z,91.46
2023-02-23T01:24:02.266Z,90.82
2023-02-23T01:26:05.780Z,91.11
2023-02-23T01:28:09.065Z,91.19
2023-02-23T01:30:16.877Z,91.14
2023-02-23T01:32:20.380Z,90.96
2023-02-23T01:34:24.444Z,91.35
2023-02-23T01:36:29.290Z,91.36
2023-02-23T01:38:37.076Z,91.06
2023-02-23T01:40:47.426Z,91.79
2023-02-23T01:42:50.552Z,92.04
2023-02-23T01:45:25.044Z,92.39
2023-02-23T01:47:28.216Z,92.29
2023-02-23T01:49:32.088Z,92.75
2023-02-23T01:51:40.804Z,92.29
2023-02-23T01:53:46.260Z,93.38
2023-02-23T01:55:51.398Z,92.98
2023-02-23T01:57:56.437Z,92.76
2023-02-23T01:59:59.724Z,93.08
2023-02-23T02:02:05.337Z,92.99
2023-02-23T02:04:09.348Z,93.17
2023-02-23T02:06:15.152Z,92.52
2023-02-23T02:08:19.342Z,92.73
2023-02-23T02:10:39.782Z,92.80
2023-02-23T02:12:45.735Z,93.03
2023-02-23T02:14:52.017Z,93.08
2023-02-23T02:17:08.571Z,92.43
2023-02-23T02:19:31.614Z,93.27
2023-02-23T02:22:09.757Z,93.79
2023-02-23T02:24:44.571Z,94.32
2023-02-23T02:26:57.455Z,94.12
2023-02-23T02:29:42.846Z,94.06
2023-02-23T02:32:15.859Z,94.44
2023-02-23T02:34:57.275Z,94.69
2023-02-23T02:37:24.177Z,95.03
2023-02-23T02:39:35.485Z,95.48
2023-02-23T02:41:47.800Z,95.45
2023-02-23T02:43:55.412Z,95.81
2023-02-23T02:46:04.754Z,95.31
2023-02-23T02:48:15.574Z,95.48
2023-02-23T02:50:24.737Z,95.24
2023-02-23T02:52:31.637Z,95.37
2023-02-23T02:54:37.456Z,95.40
2023-02-23T02:56:43.112Z,95.73
2023-02-23T02:58:46.324Z,96.21
2023-02-23T03:01:09.258Z,96.26
2023-02-23T03:03:46.636Z,96.41
2023-02-23T03:06:10.020Z,96.05
2023-02-23T03:08:40.917Z,96.71
2023-02-23T03:11:09.017Z,97.37
2023-02-23T03:13:37.105Z,97.22
2023-02-23T03:16:05.662Z,97.44
2023-02-23T03:18:37.667Z,96.96
2023-02-23T03:21:06.340Z,97.31
2023-02-23T03:23:42.914Z,97.02
2023-02-23T03:26:12.790Z,97.42
2023-02-23T03:28:38.497Z,97.43
2023-02-23T03:31:07.115Z,97.62
2023-02-23T03:33:31.213Z,97.57
2023-02-23T03:35:59.084Z,97.77
2023-02-23T03:38:24.345Z,97.76
2023-02-23T03:40:50.093Z,97.98
2023-02-23T03:43:12.728Z,97.93
2023-02-23T03:45:36.032Z,97.88
2023-02-23T03:47:59.193Z,97.84
2023-02-23T03:50:22.392Z,97.35
2023-02-23T03:52:45.496Z,97.74
2023-02-23T03:55:11.703Z,97.61
2023-02-23T03:57:35.551Z,98.07
2023-02-23T03:59:58.946Z,98.13
2023-02-23T04:02:19.935Z,98.35
2023-02-23T04:04:41.791Z,98.57
2023-02-23T04:07:04.429Z,98.79
2023-02-23T04:09:26.414Z,98.56
2023-02-23T04:11:50.011Z,98.67
2023-02-23T04:13:58.623Z,98.41
2023-02-23T04:16:02.252Z,98.80
2023-02-23T04:18:05.703Z,98.85
2023-02-23T04:20:11.648Z,98.74
2023-02-23T04:22:14.774Z,98.83
2023-02-23T04:24:18.050Z,98.98
2023-02-23T04:26:21.125Z,98.91
2023-02-23T04:28:25.624Z,98.73
2023-02-23T04:30:30.415Z,99.04
2023-02-23T04:32:33.731Z,98.63
2023-02-23T04:34:36.914Z,98.94
2023-02-23T04:36:40.703Z,99.24
2023-02-23T04:38:43.804Z,98.74
2023-02-23T04:40:46.947Z,98.73
2023-02-23T04:42:50.265Z,99.01
2023-02-23T04:44:53.509Z,99.01
2023-02-23T04:46:59.061Z,99.40
2023-02-23T04:49:02.205Z,99.20
2023-02-23T04:51:05.882Z,99.21
2023-02-23T04:53:09.050Z,98.85
2023-02-23T04:55:17.863Z,99.17
2023-02-23T04:57:20.943Z,99.29
2023-02-23T04:59:24.176Z,98.69
2023-02-23T05:01:28.967Z,99.57
2023-02-23T05:03:33.526Z,99.27
2023-02-23T05:05:36.933Z,99.05
2023-02-23T05:07:40.069Z,99.22
2023-02-23T05:09:43.203Z,99.48
2023-02-23T05:11:46.323Z,99.51
2023-02-23T05:13:49.402Z,99.76
2023-02-23T05:15:57.595Z,99.32
2023-02-23T05:18:00.801Z,99.64
2023-02-23T05:20:05.937Z,99.51
2023-02-23T05:22:12.573Z,99.76
2023-02-23T05:24:16.268Z,99.66
2023-02-23T05:26:19.372Z,99.24
2023-02-23T05:28:23.008Z,99.19
2023-02-23T05:30:26.146Z,99.55
2023-02-23T05:32:29.846Z,99.43
2023-02-23T05:34:33.137Z,99.67
2023-02-23T05:36:37.856Z,99.85
2023-02-23T05:38:41.603Z,99.45
2023-02-23T05:40:44.910Z,99.35
2023-02-23T05:42:48.135Z,99.22
2023-02-23T05:44:51.306Z,99.96
2023-02-23T05:46:54.868Z,99.26
2023-02-23T05:48:59.097Z,98.71
2023-02-23T05:51:03.378Z,99.63
2023-02-23T05:53:08.011Z,99.45
2023-02-23T05:55:12.805Z,98.91
2023-02-23T05:57:16.123Z,99.55
2023-02-23T05:59:20.436Z,99.54
2023-02-23T06:01:23.971Z,99.98
2023-02-23T06:03:27.264Z,99.90
2023-02-23T06:05:30.409Z,100.00
2023-02-23T06:07:33.870Z,100.00
2023-02-23T06:09:38.269Z,100.00
2023-02-23T06:11:41.468Z,100.00
2023-02-23T06:13:44.558Z,100.00
2023-02-23T06:15:48.107Z,100.00
2023-02-23T06:17:51.171Z,100.00
2023-02-23T06:19:54.463Z,100.00
2023-02-23T06:21:57.560Z,100.00
2023-02-23T06:24:01.002Z,100.00
2023-02-23T06:26:05.842Z,100.00
2023-02-23T06:28:10.751Z,100.00
2023-02-23T06:30:16.593Z,100.00
2023-02-23T06:32:19.839Z,100.00
2023-02-23T06:34:25.530Z,100.00
2023-02-23T06:36:28.784Z,100.00
2023-02-23T06:38:31.952Z,100.00
2023-02-23T06:40:35.161Z,100.00
2023-02-23T06:42:39.844Z,100.00
2023-02-23T06:44:43.091Z,100.00
2023-02-23T06:46:46.310Z,100.00
2023-02-23T06:48:49.439Z,100.00
2023-02-23T06:50:52.610Z,100.00
2023-02-23T06:52:57.584Z,100.00
2023-02-23T06:55:00.895Z,100.00
2023-02-23T06:57:04.265Z,100.00
2023-02-23T06:59:09.604Z,100.00
2023-02-23T07:01:13.456Z,100.00
2023-02-23T07:03:19.495Z,100.00
2023-02-23T07:05:22.774Z,100.00
2023-02-23T07:07:26.406Z,100.00
2023-02-23T07:09:30.688Z,100.00
2023-02-23T07:11:33.911Z,100.00
2023-02-23T07:13:37.141Z,100.00
2023-02-23T07:15:42.333Z,100.00
2023-02-23T07:17:48.746Z,100.00
2023-02-23T07:19:51.950Z,100.00
2023-02-23T07:21:55.495Z,100.00
2023-02-23T07:23:58.724Z,100.00
2023-02-23T07:26:01.793Z,100.00
2023-02-23T07:28:05.280Z,100.00
2023-02-23T07:30:10.202Z,100.00
2023-02-23T07:32:14.908Z,100.00
2023-02-23T07:34:18.638Z,100.00
2023-02-23T07:36:23.340Z,100.00
2023-02-23T07:38:26.558Z,100.00
2023-02-23T07:40:29.741Z,100.00
2023-02-23T07:42:32.832Z,100.00
2023-02-23T07:44:36.267Z,100.00
2023-02-23T07:46:39.370Z,100.00
2023-02-23T07:48:45.256Z,100.00
2023-02-23T07:50:48.806Z,99.71
2023-02-23T07:52:52.802Z,100.00
2023-02-23T07:54:56.567Z,100.00
2023-02-23T07:57:00.564Z,100.00
2023-02-23T07:59:04.465Z,100.00
2023-02-23T08:01:08.509Z,99.87
2023-02-23T08:03:11.873Z,100.00
2023-02-23T08:05:16.602Z,99.80
2023-02-23T08:07:19.690Z,100.00
2023-02-23T08:09:22.854Z,100.00
2023-02-23T08:11:28.742Z,99.92
2023-02-23T08:13:32.345Z,100.00
2023-02-23T08:15:35.725Z,99.74
2023-02-23T08:17:39.556Z,100.00
2023-02-23T08:19:42.761Z,100.00
2023-02-23T08:21:47.323Z,100.00
2023-02-23T08:23:50.555Z,99.87
2023-02-23T08:25:55.524Z,100.00
2023-02-23T08:28:04.760Z,99.76
2023-02-23T08:30:09.963Z,100.00
2023-02-23T08:32:13.759Z,100.00
2023-02-23T08:34:17.542Z,100.00
2023-02-23T08:36:21.343Z,100.00
2023-02-23T08:38:25.845Z,100.00
2023-02-23T08:40:29.223Z,100.00
2023-02-23T08:42:33.109Z,100.00
2023-02-23T08:44:36.578Z,100.00
2023-02-23T08:46:39.983Z,100.00
2023-02-23T08:48:43.304Z,100.00
2023-02-23T08:50:49.819Z,100.00
2023-02-23T08:52:53.068Z,100.00
2023-02-23T08:54:57.729Z,100.00
2023-02-23T08:57:01.203Z,100.00
2023-02-23T08:59:04.336Z,100.00
2023-02-23T09:01:07.662Z,100.00
2023-02-23T09:03:11.048Z,100.00
2023-02-23T09:05:14.388Z,100.00
2023-02-23T09:07:19.364Z,100.00
2023-02-23T09:09:22.571Z,100.00
2023-02-23T09:11:27.579Z,100.00
2023-02-23T09:13:30.802Z,100.00
2023-02-23T09:15:34.107Z,100.00
2023-02-23T09:17:37.262Z,100.00
2023-02-23T09:19:41.029Z,100.00
2023-02-23T09:21:45.399Z,100.00
2023-02-23T09:23:51.664Z,100.00
2023-02-23T09:25:55.284Z,99.35
2023-02-23T09:28:00.679Z,100.00
2023-02-23T09:30:04.069Z,99.40
2023-02-23T09:32:07.590Z,99.07
2023-02-23T09:34:12.658Z,99.12
2023-02-23T09:36:17.641Z,99.15
2023-02-23T09:38:20.943Z,98.88
2023-02-23T09:40:26.303Z,98.56
2023-02-23T09:42:38.063Z,97.55
2023-02-23T09:44:54.876Z,98.03
2023-02-23T09:47:10.256Z,97.60
2023-02-23T09:49:18.443Z,96.80
2023-02-23T09:51:22.913Z,97.16
2023-02-23T09:53:33.700Z,96.83
2023-02-23T09:55:38.930Z,96.80
2023-02-23T09:57:46.200Z,96.73
2023-02-23T09:59:50.746Z,95.55
2023-02-23T10:02:01.355Z,95.15
2023-02-23T10:04:08.751Z,95.12
2023-02-23T10:06:14.845Z,95.84
2023-02-23T10:08:28.568Z,94.45
2023-02-23T10:10:37.792Z,93.67
2023-02-23T10:12:46.500Z,94.90
2023-02-23T10:15:12.721Z,94.57
2023-02-23T10:17:22.564Z,92.72
2023-02-23T10:19:29.372Z,92.80
2023-02-23T10:21:35.601Z,93.42
2023-02-23T10:23:42.428Z,92.89
2023-02-23T10:25:48.532Z,92.91
2023-02-23T10:27:52.397Z,92.99
2023-02-23T10:29:57.750Z,92.25
2023-02-23T10:32:06.749Z,91.80
2023-02-23T10:34:14.953Z,91.00
2023-02-23T10:36:20.308Z,90.95
2023-02-23T10:38:23.392Z,90.77
2023-02-23T10:40:28.784Z,87.49
2023-02-23T10:42:32.168Z,87.83
2023-02-23T10:44:35.376Z,88.09
2023-02-23T10:46:41.115Z,87.32
2023-02-23T10:48:46.031Z,86.20
2023-02-23T10:50:50.497Z,86.85
2023-02-23T10:52:56.701Z,87.13
2023-02-23T10:55:00.509Z,86.78
2023-02-23T10:57:04.720Z,88.34
2023-02-23T10:59:09.462Z,89.70
2023-02-23T11:01:12.665Z,87.40
2023-02-23T11:03:24.487Z,87.55
2023-02-23T11:05:46.455Z,86.23
2023-02-23T11:07:49.489Z,86.56
2023-02-23T11:09:52.853Z,84.32
2023-02-23T11:12:00.637Z,86.84
2023-02-23T11:14:17.629Z,85.58
2023-02-23T11:16:22.898Z,86.25
2023-02-23T11:18:26.494Z,86.31
2023-02-23T11:20:33.372Z,85.61
2023-02-23T11:22:38.555Z,87.29
2023-02-23T11:24:42.369Z,86.22
2023-02-23T11:26:47.616Z,83.70
2023-02-23T11:28:54.048Z,84.62
2023-02-23T11:30:58.661Z,84.11
2023-02-23T11:33:09.570Z,83.30
2023-02-23T11:35:18.795Z,85.58
2023-02-23T11:37:23.861Z,85.24
2023-02-23T11:39:28.407Z,84.61
2023-02-23T11:41:32.907Z,86.02
2023-02-23T11:43:36.149Z,83.45
2023-02-23T11:45:43.022Z,84.80
2023-02-23T11:47:49.754Z,84.42
2023-02-23T11:49:53.072Z,86.16
2023-02-23T11:51:56.357Z,84.32
2023-02-23T11:54:00.440Z,83.93
2023-02-23T11:56:11.245Z,83.48
2023-02-23T11:58:24.177Z,82.19
2023-02-23T12:00:29.924Z,81.91
2023-02-23T12:02:34.648Z,82.54
2023-02-23T12:04:40.362Z,80.27
2023-02-23T12:06:43.594Z,83.45
2023-02-23T12:08:49.317Z,80.79
2023-02-23T12:10:56.164Z,82.53
2023-02-23T12:13:11.385Z,79.53
2023-02-23T12:15:22.295Z,80.02
2023-02-23T12:17:27.389Z,80.01
2023-02-23T12:19:33.904Z,81.92
2023-02-23T12:21:39.360Z,82.42
2023-02-23T12:23:45.333Z,79.61
2023-02-23T12:25:53.407Z,79.78
2023-02-23T12:28:16.917Z,79.84
2023-02-23T12:30:29.023Z,80.03
2023-02-23T12:32:43.565Z,80.09
2023-02-23T12:34:50.435Z,78.46
2023-02-23T12:36:58.380Z,79.64
2023-02-23T12:39:05.415Z,78.69
2023-02-23T12:41:13.073Z,79.30
2023-02-23T12:43:19.177Z,79.14
2023-02-23T12:45:29.769Z,79.50
2023-02-23T12:47:35.417Z,78.50
2023-02-23T12:49:40.938Z,76.01
2023-02-23T12:51:46.567Z,74.76
2023-02-23T12:53:49.932Z,75.88
2023-02-23T12:56:04.173Z,78.35
2023-02-23T12:58:12.952Z,78.20
2023-02-23T13:00:39.217Z,77.71
2023-02-23T13:02:47.084Z,77.77
2023-02-23T13:05:02.470Z,79.48
2023-02-23T13:07:10.510Z,79.34
2023-02-23T13:09:27.247Z,78.35
2023-02-23T13:11:52.584Z,78.71
2023-02-23T13:13:59.490Z,78.83
2023-02-23T13:16:11.967Z,79.52
2023-02-23T13:18:21.034Z,78.79
2023-02-23T13:20:28.674Z,78.43
2023-02-23T13:22:37.289Z,78.41
2023-02-23T13:24:44.761Z,78.80
2023-02-23T13:26:52.456Z,80.51
2023-02-23T13:28:58.742Z,78.34
2023-02-23T13:31:03.551Z,78.04
2023-02-23T13:33:20.421Z,79.48
2023-02-23T13:35:23.646Z,78.51
2023-02-23T13:37:32.252Z,78.21
2023-02-23T13:39:50.192Z,78.94
2023-02-23T13:42:04.587Z,78.23
2023-02-23T13:44:11.575Z,78.50
2023-02-23T13:46:21.761Z,77.88
2023-02-23T13:48:56.168Z,78.93
2023-02-23T13:51:05.344Z,78.02
2023-02-23T13:53:38.455Z,77.72
2023-02-23T13:55:51.643Z,78.18
2023-02-23T13:57:55.051Z,77.24
2023-02-23T13:59:58.663Z,78.63
2023-02-23T14:02:06.816Z,76.57
2023-02-23T14:04:22.769Z,75.84
2023-02-23T14:06:27.985Z,75.42
2023-02-23T14:08:36.321Z,76.13
2023-02-23T14:10:41.778Z,75.63
2023-02-23T14:13:05.411Z,76.12
2023-02-23T14:15:30.835Z,76.88
2023-02-23T14:17:56.934Z,75.95
2023-02-23T14:20:29.518Z,76.18
2023-02-23T14:22:35.648Z,77.57
2023-02-23T14:24:40.097Z,77.60
2023-02-23T14:26:45.949Z,75.76
2023-02-23T14:28:50.394Z,77.17
2023-02-23T14:31:01.644Z,76.79
2023-02-23T14:33:21.276Z,76.64
2023-02-23T14:35:42.587Z,77.24
2023-02-23T14:37:56.028Z,77.88
2023-02-23T14:40:06.749Z,78.45
2023-02-23T14:42:09.967Z,76.65
2023-02-23T14:44:28.378Z,76.20
2023-02-23T14:46:35.092Z,76.84
2023-02-23T14:48:40.914Z,75.84
2023-02-23T14:50:44.522Z,78.16
2023-02-23T14:52:47.806Z,77.19
2023-02-23T14:54:50.938Z,76.09
2023-02-23T14:56:58.141Z,74.19
2023-02-23T14:59:01.290Z,74.02
2023-02-23T15:01:04.387Z,75.28
2023-02-23T15:03:09.235Z,77.12
2023-02-23T15:05:16.268Z,74.30
2023-02-23T15:07:25.215Z,75.01
2023-02-23T15:09:34.396Z,74.81
2023-02-23T15:11:38.214Z,74.32
2023-02-23T15:13:46.587Z,76.45
2023-02-23T15:15:50.906Z,75.85
2023-02-23T15:17:57.465Z,75.08
2023-02-23T15:20:15.991Z,75.61
2023-02-23T15:22:26.551Z,76.33
2023-02-23T15:24:32.944Z,76.56
2023-02-23T15:26:38.869Z,75.72
2023-02-23T15:28:45.513Z,77.37
2023-02-23T15:30:50.419Z,77.64
2023-02-23T15:33:01.476Z,77.49
2023-02-23T15:35:05.114Z,78.21
2023-02-23T15:37:13.774Z,77.65
2023-02-23T15:39:18.966Z,78.25
2023-02-23T15:41:33.384Z,76.62
2023-02-23T15:43:36.845Z,77.84
2023-02-23T15:45:43.943Z,76.63
2023-02-23T15:47:47.151Z,78.05
2023-02-23T15:49:51.041Z,77.81
2023-02-23T15:52:02.859Z,78.81
2023-02-23T15:54:13.749Z,78.06
2023-02-23T15:56:21.156Z,78.05
2023-02-23T15:58:27.367Z,77.67
2023-02-23T16:00:35.213Z,77.88
2023-02-23T16:02:41.311Z,77.66
2023-02-23T16:04:48.995Z,78.97
2023-02-23T16:06:53.981Z,78.68
2023-02-23T16:08:58.496Z,78.54
2023-02-23T16:11:11.909Z,78.29
2023-02-23T16:13:18.103Z,79.14
2023-02-23T16:15:26.313Z,80.21
2023-02-23T16:17:33.972Z,80.11
2023-02-23T16:19:41.580Z,79.61
2023-02-23T16:21:50.157Z,80.31
2023-02-23T16:23:54.985Z,79.88
2023-02-23T16:26:01.383Z,79.73
2023-02-23T16:28:06.135Z,80.42
2023-02-23T16:30:19.937Z,79.97
2023-02-23T16:32:23.761Z,79.73
2023-02-23T16:34:28.519Z,80.90
2023-02-23T16:36:39.808Z,80.66
2023-02-23T16:38:47.422Z,80.17
2023-02-23T16:40:50.673Z,80.82
2023-02-23T16:42:54.905Z,81.40
2023-02-23T16:44:58.544Z,81.60
2023-02-23T16:47:13.918Z,81.30
2023-02-23T16:49:16.943Z,81.72
2023-02-23T16:51:22.902Z,82.15
2023-02-23T16:53:27.399Z,81.80
2023-02-23T16:55:37.405Z,81.51
2023-02-23T16:57:42.032Z,81.52
2023-02-23T16:59:49.494Z,82.16
2023-02-23T17:01:52.576Z,83.07
2023-02-23T17:03:55.737Z,83.29
2023-02-23T17:05:58.889Z,84.52
2023-02-23T17:08:01.976Z,85.35
2023-02-23T17:10:07.947Z,85.95
2023-02-23T17:12:12.902Z,86.63
2023-02-23T17:14:23.308Z,87.16
2023-02-23T17:16:26.401Z,87.55
2023-02-23T17:18:31.662Z,87.86
2023-02-23T17:20:35.245Z,88.32
2023-02-23T17:22:38.307Z,88.23
2023-02-23T17:24:41.678Z,88.84
2023-02-23T17:26:46.154Z,89.12
2023-02-23T17:28:50.063Z,89.04
2023-02-23T17:30:54.170Z,90.04
2023-02-23T17:32:58.806Z,89.94
2023-02-23T17:35:02.016Z,90.24
2023-02-23T17:37:07.577Z,90.96
2023-02-23T17:39:14.118Z,91.16
2023-02-23T17:41:19.543Z,91.02
2023-02-23T17:43:24.314Z,91.22
2023-02-23T17:45:28.178Z,91.61
2023-02-23T17:47:32.402Z,90.93
2023-02-23T17:49:35.570Z,91.63
2023-02-23T17:51:38.641Z,90.81
2023-02-23T17:53:41.964Z,91.09
2023-02-23T17:55:46.427Z,92.18
2023-02-23T17:57:49.699Z,91.50
2023-02-23T17:59:54.222Z,92.44
2023-02-23T18:01:57.379Z,91.39
2023-02-23T18:04:00.834Z,91.97
2023-02-23T18:06:05.126Z,92.98
2023-02-23T18:08:08.462Z,92.03
2023-02-23T18:10:13.400Z,92.36
2023-02-23T18:12:17.272Z,93.64
2023-02-23T18:14:20.392Z,93.62
2023-02-23T18:16:25.311Z,92.26
2023-02-23T18:18:29.062Z,93.79
2023-02-23T18:20:32.157Z,93.20
2023-02-23T18:22:35.283Z,93.76
2023-02-23T18:24:38.884Z,94.11
2023-02-23T18:26:42.433Z,95.19
2023-02-23T18:28:46.384Z,95.29
2023-02-23T18:30:49.524Z,95.69
2023-02-23T18:32:57.370Z,95.70
2023-02-23T18:35:00.778Z,94.45
2023-02-23T18:37:08.657Z,95.40
2023-02-23T18:39:12.643Z,95.71
2023-02-23T18:41:15.796Z,95.51
2023-02-23T18:43:18.938Z,95.22
2023-02-23T18:45:24.134Z,94.85
2023-02-23T18:47:28.716Z,95.87
2023-02-23T18:49:33.194Z,95.83
2023-02-23T18:51:36.404Z,96.75
2023-02-23T18:53:39.966Z,95.52
2023-02-23T18:55:44.659Z,96.06
2023-02-23T18:57:47.864Z,96.16
2023-02-23T18:59:51.267Z,95.22
2023-02-23T19:01:54.529Z,96.50
2023-02-23T19:03:59.789Z,95.75
2023-02-23T19:06:04.410Z,96.53
2023-02-23T19:08:09.546Z,97.38
2023-02-23T19:10:16.294Z,97.15
2023-02-23T19:12:19.526Z,95.64
2023-02-23T19:14:41.054Z,96.29
2023-02-23T19:16:46.767Z,96.35
2023-02-23T19:18:49.890Z,96.32
2023-02-23T19:20:55.375Z,98.06
2023-02-23T19:23:00.057Z,96.84
2023-02-23T19:25:03.884Z,97.12
2023-02-23T19:27:07.178Z,96.69
2023-02-23T19:29:10.274Z,97.47
2023-02-23T19:31:19.488Z,97.38
2023-02-23T19:33:23.042Z,96.49
2023-02-23T19:35:26.245Z,96.91
2023-02-23T19:37:29.508Z,96.52
2023-02-23T19:39:34.580Z,97.83
2023-02-23T19:41:38.974Z,98.85
2023-02-23T19:43:42.653Z,98.04
2023-02-23T19:45:46.855Z,97.82
2023-02-23T19:47:52.520Z,98.21
2023-02-23T19:49:55.621Z,98.74
2023-02-23T19:51:58.912Z,96.54
2023-02-23T19:54:02.176Z,97.33
2023-02-23T19:56:08.997Z,97.76
2023-02-23T19:58:12.797Z,96.48
2023-02-23T20:00:16.653Z,96.56
2023-02-23T20:02:19.776Z,98.34
2023-02-23T20:04:22.984Z,96.50
2023-02-23T20:06:29.642Z,96.34
2023-02-23T20:08:32.832Z,97.03
2023-02-23T20:10:35.974Z,96.61
2023-02-23T20:12:40.955Z,98.41
2023-02-23T20:14:44.924Z,97.65
2023-02-23T20:16:49.722Z,98.48
2023-02-23T20:18:52.827Z,96.68
2023-02-23T20:20:56.219Z,98.06
2023-02-23T20:22:59.449Z,98.41
2023-02-23T20:25:05.948Z,99.03
2023-02-23T20:27:09.296Z,99.11
2023-02-23T20:29:17.934Z,98.58
2023-02-23T20:31:25.650Z,98.67
2023-02-23T20:33:29.556Z,98.50
2023-02-23T20:35:33.085Z,97.56
2023-02-23T20:37:36.168Z,99.62
2023-02-23T20:39:39.547Z,97.47
2023-02-23T20:41:43.329Z,98.98
2023-02-23T20:43:47.060Z,97.80
2023-02-23T20:45:51.917Z,99.02
2023-02-23T20:47:55.619Z,98.36
2023-02-23T20:49:58.967Z,98.57
2023-02-23T20:52:03.238Z,98.30
2023-02-23T20:54:08.075Z,98.79
2023-02-23T20:56:11.379Z,99.62
2023-02-23T20:58:26.286Z,99.10
2023-02-23T21:00:30.540Z,98.23
2023-02-23T21:02:36.358Z,98.86
2023-02-23T21:04:39.434Z,99.24
2023-02-23T21:06:43.156Z,98.51
2023-02-23T21:08:49.028Z,98.13
2023-02-23T21:10:52.316Z,99.82
2023-02-23T21:12:56.505Z,97.70
2023-02-23T21:14:59.725Z,98.85
2023-02-23T21:17:03.026Z,99.02
2023-02-23T21:19:07.889Z,98.21
2023-02-23T21:21:11.548Z,99.57
2023-02-23T21:23:17.664Z,99.68
2023-02-23T21:25:23.364Z,97.66
2023-02-23T21:27:26.502Z,99.02
2023-02-23T21:29:29.689Z,98.73
2023-02-23T21:31:32.968Z,98.19
2023-02-23T21:33:36.129Z,97.17
2023-02-23T21:35:40.716Z,99.06
2023-02-23T21:37:44.369Z,99.03
2023-02-23T21:39:49.176Z,98.08
2023-02-23T21:41:52.581Z,98.04
2023-02-23T21:43:56.006Z,99.05
2023-02-23T21:45:59.448Z,99.71
2023-02-23T21:48:04.439Z,100.00
2023-02-23T21:50:13.573Z,100.00
2023-02-23T21:52:19.063Z,100.00
2023-02-23T21:54:23.715Z,99.95
2023-02-23T21:56:27.061Z,99.00
2023-02-23T21:58:30.804Z,99.67
2023-02-23T22:00:37.061Z,98.04
2023-02-23T22:02:41.992Z,99.17
2023-02-23T22:04:47.755Z,98.42
2023-02-23T22:06:50.851Z,99.69
2023-02-23T22:08:56.351Z,99.31
2023-02-23T22:10:59.505Z,99.30
2023-02-23T22:13:06.098Z,98.90
2023-02-23T22:15:10.405Z,99.18
2023-02-23T22:17:18.870Z,99.93
2023-02-23T22:19:23.232Z,99.65
2023-02-23T22:21:27.754Z,100.00
2023-02-23T22:23:31.418Z,99.45
2023-02-23T22:25:35.957Z,100.00
2023-02-23T22:27:41.572Z,100.00
2023-02-23T22:29:44.855Z,99.63
2023-02-23T22:31:48.281Z,100.00
2023-02-23T22:33:51.843Z,100.00
2023-02-23T22:35:55.236Z,100.00
2023-02-23T22:38:00.253Z,100.00
2023-02-23T22:40:08.286Z,99.98
2023-02-23T22:42:13.001Z,99.98
2023-02-23T22:44:18.776Z,99.89
2023-02-23T22:46:24.243Z,100.00
2023-02-23T22:48:28.427Z,99.49
2023-02-23T22:50:31.517Z,99.73
2023-02-23T22:52:34.779Z,100.00
2023-02-23T22:54:39.727Z,99.97
2023-02-23T22:56:44.141Z,100.00
2023-02-23T22:58:52.003Z,100.00
2023-02-23T23:01:06.129Z,100.00
2023-02-23T23:03:10.408Z,100.00
2023-02-23T23:05:15.156Z,100.00
2023-02-23T23:07:20.740Z,100.00
2023-02-23T23:09:24.889Z,100.00
2023-02-23T23:11:29.923Z,100.00
2023-02-23T23:13:37.131Z,99.93
2023-02-23T23:15:43.210Z,99.74
2023-02-23T23:17:48.584Z,100.00
2023-02-23T23:19:51.938Z,100.00
2023-02-23T23:21:56.363Z,99.83
2023-02-23T23:24:02.164Z,99.98
2023-02-23T23:26:06.613Z,100.00
2023-02-23T23:28:12.494Z,100.00
2023-02-23T23:30:21.060Z,100.00
2023-02-23T23:32:27.734Z,100.00
2023-02-23T23:34:34.727Z,100.00
2023-02-23T23:36:46.377Z,100.00
2023-02-23T23:38:50.682Z,100.00
2023-02-23T23:40:53.959Z,100.00
2023-02-23T23:43:02.220Z,100.00
2023-02-23T23:45:09.627Z,100.00
2023-02-23T23:47:15.088Z,100.00
2023-02-23T23:49:21.547Z,100.00
2023-02-23T23:51:27.545Z,100.00
2023-02-23T23:53:31.006Z,100.00
2023-02-23T23:55:34.246Z,100.00
2023-02-23T23:57:37.880Z,100.00
2023-02-23T23:59:46.235Z,100.00
